Time;durP1;ratioP1;P1;durP2;ratioP2;P2;SDS_P1;SDS_P2;PMS_P1;PMS_P2;Temp;Humidity;BMP_temperature;BMP_pressure;BME280_temperature;BME280_humidity;BME280_pressure;Samples;Min_cycle;Max_cycle;Signal;HPM_P1;HPM_P2
2024/01/27 00:01:00;;;;;;;2.40;2.30;;;6.10;99.90;;;;;;5041096;28;21583;-78
2024/01/27 00:03:29;;;;;;;3.43;2.90;;;6.10;99.90;;;;;;5039266;28;20448;-78
2024/01/27 00:05:57;;;;;;;3.13;2.93;;;6.10;99.90;;;;;;5037886;28;20495;-78
2024/01/27 00:08:26;;;;;;;7.60;2.80;;;6.10;99.90;;;;;;5037160;28;20605;-80
2024/01/27 00:10:54;;;;;;;3.03;2.83;;;6.10;99.90;;;;;;5038023;28;20480;-80
2024/01/27 00:13:22;;;;;;;5.87;3.20;;;6.00;99.90;;;;;;5041026;28;20478;-78
2024/01/27 00:15:51;;;;;;;2.80;2.60;;;6.00;99.90;;;;;;5043106;28;20464;-80
2024/01/27 00:18:21;;;;;;;2.70;2.50;;;5.90;99.90;;;;;;5035033;28;20456;-79
2024/01/27 00:20:49;;;;;;;4.10;2.97;;;5.90;99.90;;;;;;5037279;28;20504;-80
2024/01/27 00:23:17;;;;;;;3.23;3.00;;;5.80;99.90;;;;;;5041928;28;20462;-81
2024/01/27 00:25:45;;;;;;;3.40;3.10;;;5.80;99.90;;;;;;5042510;28;20456;-79
2024/01/27 00:28:13;;;;;;;3.00;2.67;;;5.70;99.90;;;;;;5037745;28;20460;-81
2024/01/27 00:30:41;;;;;;;2.80;2.60;;;5.80;99.90;;;;;;5042597;28;20480;-81
2024/01/27 00:33:09;;;;;;;3.97;3.47;;;5.80;99.90;;;;;;5042099;28;20489;-76
2024/01/27 00:35:39;;;;;;;3.20;2.90;;;5.80;99.90;;;;;;5042832;28;20467;-78
2024/01/27 00:38:07;;;;;;;6.10;3.70;;;5.80;99.90;;;;;;5036010;28;20448;-77
2024/01/27 00:40:36;;;;;;;2.60;2.40;;;5.80;99.90;;;;;;5041943;28;20991;-78
2024/01/27 00:43:04;;;;;;;4.70;3.60;;;5.70;99.90;;;;;;5038007;28;20551;-78
2024/01/27 00:45:32;;;;;;;3.30;3.00;;;5.60;99.90;;;;;;5036335;28;20449;-79
2024/01/27 00:48:01;;;;;;;5.10;3.17;;;5.60;99.90;;;;;;5036632;28;20470;-80
2024/01/27 00:50:29;;;;;;;5.03;3.70;;;5.50;99.90;;;;;;5037438;28;20472;-78
2024/01/27 00:52:58;;;;;;;3.83;2.90;;;5.50;99.90;;;;;;5037524;28;20465;-81
2024/01/27 00:55:26;;;;;;;4.20;2.80;;;5.50;99.90;;;;;;5033896;28;20449;-78
2024/01/27 00:57:55;;;;;;;3.80;3.40;;;5.50;99.90;;;;;;5031363;28;20578;-79
2024/01/27 01:00:23;;;;;;;4.13;3.17;;;5.50;99.90;;;;;;5034401;28;20476;-80
2024/01/27 01:02:51;;;;;;;3.67;2.90;;;5.60;99.90;;;;;;5040231;28;20541;-78
2024/01/27 01:05:19;;;;;;;4.37;3.37;;;5.60;99.90;;;;;;5039068;28;21234;-77
2024/01/27 01:07:47;;;;;;;4.10;2.70;;;5.50;99.90;;;;;;5035447;28;20452;-77
2024/01/27 01:10:17;;;;;;;2.87;2.57;;;5.60;99.90;;;;;;5029568;28;22148;-77
2024/01/27 01:12:45;;;;;;;2.70;2.50;;;5.60;99.90;;;;;;5037905;28;20536;-79
2024/01/27 01:15:14;;;;;;;3.33;2.80;;;5.60;99.90;;;;;;5038332;28;20472;-81
2024/01/27 01:17:42;;;;;;;3.00;2.80;;;5.40;99.90;;;;;;5034742;28;21746;-76
2024/01/27 01:20:12;;;;;;;2.57;2.37;;;5.40;99.90;;;;;;5039322;28;20480;-78
2024/01/27 01:22:40;;;;;;;3.33;2.70;;;5.30;99.90;;;;;;5038123;28;20510;-79
2024/01/27 01:25:08;;;;;;;3.30;3.10;;;5.30;99.90;;;;;;5034210;28;20440;-78
2024/01/27 01:27:38;;;;;;;4.80;2.93;;;5.30;99.90;;;;;;5033539;28;20459;-79
2024/01/27 01:30:07;;;;;;;2.70;2.50;;;5.30;99.90;;;;;;5037511;28;20583;-79
2024/01/27 01:32:36;;;;;;;3.90;2.87;;;5.20;99.90;;;;;;5037343;28;20463;-79
2024/01/27 01:35:05;;;;;;;3.63;2.90;;;5.20;99.90;;;;;;5039932;28;20870;-78
2024/01/27 01:37:33;;;;;;;3.30;2.90;;;5.20;99.90;;;;;;5038802;28;20495;-78
2024/01/27 01:40:02;;;;;;;10.67;3.10;;;5.20;99.90;;;;;;5041352;28;20476;-77
2024/01/27 01:42:31;;;;;;;2.87;2.67;;;5.20;99.90;;;;;;5038330;28;20499;-80
2024/01/27 01:45:00;;;;;;;2.80;2.60;;;5.20;99.90;;;;;;5038958;28;20487;-78
2024/01/27 01:47:29;;;;;;;2.57;2.37;;;5.10;99.90;;;;;;5037232;28;20456;-78
2024/01/27 01:49:57;;;;;;;2.57;2.37;;;5.10;99.90;;;;;;5038940;28;20525;-81
2024/01/27 01:52:26;;;;;;;5.57;5.07;;;5.10;99.90;;;;;;5041612;28;20558;-80
2024/01/27 01:54:54;;;;;;;4.20;3.67;;;5.10;99.90;;;;;;5040814;28;20482;-81
2024/01/27 01:57:22;;;;;;;3.63;3.37;;;5.20;99.90;;;;;;5037788;28;20479;-80
2024/01/27 01:59:50;;;;;;;3.27;3.07;;;5.20;99.90;;;;;;5041092;28;20918;-77
2024/01/27 02:02:20;;;;;;;4.73;3.17;;;5.00;99.90;;;;;;5038167;28;20464;-78
2024/01/27 02:04:48;;;;;;;3.47;3.17;;;5.00;99.90;;;;;;5037897;28;20448;-82
2024/01/27 02:07:17;;;;;;;3.77;2.70;;;5.10;99.90;;;;;;5033552;28;21067;-81
2024/01/27 02:09:45;;;;;;;3.80;2.90;;;5.10;99.90;;;;;;5033588;28;21227;-79
2024/01/27 02:12:13;;;;;;;3.37;2.90;;;5.10;99.90;;;;;;5038870;28;20468;-79
2024/01/27 02:14:41;;;;;;;3.17;2.80;;;5.00;99.90;;;;;;5039152;28;20480;-80
2024/01/27 02:17:09;;;;;;;3.13;2.70;;;4.90;99.90;;;;;;5034471;28;20453;-79
2024/01/27 02:19:39;;;;;;;2.80;2.60;;;4.90;99.90;;;;;;5039684;28;20511;-80
2024/01/27 02:22:07;;;;;;;5.07;3.03;;;4.80;99.90;;;;;;5041209;28;20455;-81
2024/01/27 02:24:37;;;;;;;4.00;2.90;;;4.80;99.90;;;;;;5037592;28;21032;-81
2024/01/27 02:27:05;;;;;;;3.40;3.20;;;4.80;99.90;;;;;;5035002;28;20534;-78
2024/01/27 02:29:34;;;;;;;3.20;2.60;;;4.80;99.90;;;;;;5037158;28;20473;-81
2024/01/27 02:32:03;;;;;;;2.87;2.40;;;4.80;99.90;;;;;;5038973;28;20496;-79
2024/01/27 02:34:31;;;;;;;4.57;2.33;;;4.80;99.90;;;;;;5043852;28;20484;-78
2024/01/27 02:36:59;;;;;;;4.43;2.60;;;4.80;99.90;;;;;;5041917;28;20444;-76
2024/01/27 02:39:27;;;;;;;4.30;2.70;;;4.70;99.90;;;;;;5040003;28;20460;-79
2024/01/27 02:41:57;;;;;;;4.03;2.90;;;4.70;99.90;;;;;;5040373;28;20466;-76
2024/01/27 02:44:25;;;;;;;2.47;2.27;;;4.70;99.90;;;;;;5037141;28;20459;-78
2024/01/27 02:46:53;;;;;;;3.03;2.73;;;4.60;99.90;;;;;;5040506;28;20449;-77
2024/01/27 02:49:21;;;;;;;2.70;2.33;;;4.70;99.90;;;;;;5036380;28;20541;-78
2024/01/27 02:51:50;;;;;;;3.60;3.30;;;4.70;99.90;;;;;;5036369;28;20460;-77
2024/01/27 02:54:18;;;;;;;3.13;2.40;;;4.60;99.90;;;;;;5041326;28;20486;-79
2024/01/27 02:56:46;;;;;;;3.60;2.80;;;4.60;99.90;;;;;;5035988;28;20460;-79
2024/01/27 02:59:16;;;;;;;3.63;2.90;;;4.60;99.90;;;;;;5035591;28;20451;-78
2024/01/27 03:01:44;;;;;;;2.87;2.67;;;4.50;99.90;;;;;;5037588;28;20467;-77
2024/01/27 03:04:12;;;;;;;2.93;2.70;;;4.50;99.90;;;;;;5041081;28;20449;-79
2024/01/27 03:06:40;;;;;;;2.97;2.67;;;4.50;99.90;;;;;;5040009;28;20464;-79
2024/01/27 03:09:10;;;;;;;5.47;3.93;;;4.40;99.90;;;;;;5038233;28;20460;-79
2024/01/27 03:11:38;;;;;;;3.83;3.40;;;4.40;99.90;;;;;;5038059;28;20606;-78
2024/01/27 03:14:06;;;;;;;4.60;3.53;;;4.40;99.90;;;;;;5032417;28;20456;-80
2024/01/27 03:16:36;;;;;;;3.57;3.27;;;4.40;99.90;;;;;;5035326;28;20463;-77
2024/01/27 03:19:04;;;;;;;3.43;2.90;;;4.50;99.90;;;;;;5031793;28;20570;-77
2024/01/27 03:21:32;;;;;;;3.30;3.00;;;4.50;99.90;;;;;;5031739;28;21063;-78
2024/01/27 03:24:00;;;;;;;4.57;4.00;;;4.60;99.90;;;;;;5035094;28;21514;-78
2024/01/27 03:26:29;;;;;;;5.30;3.27;;;4.60;99.90;;;;;;5035691;28;20456;-79
2024/01/27 03:28:57;;;;;;;3.77;3.37;;;4.70;99.90;;;;;;5034776;28;20487;-79
2024/01/27 03:31:31;;;;;;;4.37;3.20;;;4.60;99.90;;;;;;5037774;28;21036;-77
2024/01/27 03:34:01;;;;;;;3.43;3.13;;;4.60;99.90;;;;;;5038951;28;20448;-78
2024/01/27 03:36:30;;;;;;;4.20;3.90;;;4.40;99.90;;;;;;5037566;28;21147;-78
2024/01/27 03:38:59;;;;;;;4.90;3.10;;;4.30;99.90;;;;;;5033417;28;21048;-78
2024/01/27 03:41:28;;;;;;;3.83;3.58;;;4.30;99.90;;;;;;5035313;28;20472;-81
2024/01/27 03:43:56;;;;;;;4.90;3.80;;;4.40;99.90;;;;;;5036316;28;20229;-80
2024/01/27 03:46:24;;;;;;;4.70;4.30;;;4.40;99.90;;;;;;5039740;28;20490;-78
2024/01/27 03:48:52;;;;;;;4.25;3.60;;;4.30;99.90;;;;;;5041525;28;20509;-79
2024/01/27 03:51:23;;;;;;;3.87;3.43;;;4.30;99.90;;;;;;5039313;28;20217;-78
2024/01/27 03:53:51;;;;;;;6.30;4.40;;;4.30;99.90;;;;;;5037640;28;20535;-80
2024/01/27 03:56:19;;;;;;;3.50;3.20;;;4.20;99.90;;;;;;5040121;28;20210;-77
2024/01/27 03:58:47;;;;;;;4.57;2.97;;;4.20;99.90;;;;;;5042414;28;20448;-78
2024/01/27 04:01:16;;;;;;;3.35;3.15;;;4.30;99.90;;;;;;5037553;28;20477;-79
2024/01/27 04:03:44;;;;;;;3.30;2.77;;;4.30;99.90;;;;;;5039602;28;20755;-80
2024/01/27 04:06:12;;;;;;;3.20;3.00;;;4.20;99.90;;;;;;5036819;28;20475;-76
2024/01/27 04:08:43;;;;;;;4.03;3.00;;;4.20;99.90;;;;;;5036576;28;20547;-82
2024/01/27 04:11:21;;;;;;;4.27;3.07;;;4.10;99.90;;;;;;5039868;28;20222;-77
2024/01/27 04:13:50;;;;;;;3.63;2.70;;;4.10;99.90;;;;;;5040872;28;20542;-79
2024/01/27 04:16:19;;;;;;;3.65;3.35;;;4.00;99.90;;;;;;5041826;28;20478;-79
2024/01/27 04:18:47;;;;;;;5.60;3.20;;;4.00;99.90;;;;;;5040581;28;20220;-81
2024/01/27 04:21:16;;;;;;;4.43;3.10;;;4.10;99.90;;;;;;5039812;28;20210;-79
2024/01/27 04:23:45;;;;;;;5.73;3.60;;;4.00;99.90;;;;;;5043611;28;20667;-78
2024/01/27 04:26:13;;;;;;;3.50;3.20;;;4.00;99.90;;;;;;5043670;28;20474;-79
2024/01/27 04:28:42;;;;;;;3.58;3.25;;;4.00;99.90;;;;;;5041363;28;20462;-78
2024/01/27 04:31:10;;;;;;;5.40;3.45;;;4.10;99.90;;;;;;5040433;28;20236;-78
2024/01/27 04:33:38;;;;;;;3.38;3.08;;;4.00;99.90;;;;;;5043601;28;20206;-78
2024/01/27 04:36:08;;;;;;;3.95;3.05;;;4.00;99.90;;;;;;5041174;28;20385;-76
2024/01/27 04:38:36;;;;;;;3.30;3.20;;;4.10;99.90;;;;;;5042803;28;20575;-77
2024/01/27 04:41:06;;;;;;;3.93;3.03;;;4.00;99.90;;;;;;5038862;28;20543;-78
2024/01/27 04:43:34;;;;;;;5.13;3.60;;;3.90;99.90;;;;;;5042529;28;20472;-79
2024/01/27 04:46:02;;;;;;;3.15;2.85;;;3.90;99.90;;;;;;5039614;28;20449;-78
2024/01/27 04:48:30;;;;;;;3.58;3.25;;;3.80;99.90;;;;;;5043622;28;20284;-77
2024/01/27 04:50:59;;;;;;;3.35;3.05;;;3.90;99.90;;;;;;5041577;28;20234;-80
2024/01/27 04:53:27;;;;;;;3.47;3.17;;;3.90;99.90;;;;;;5039001;28;20226;-81
2024/01/27 04:55:55;;;;;;;4.13;3.83;;;3.80;99.90;;;;;;5038294;28;21483;-80
2024/01/27 04:58:24;;;;;;;3.17;2.97;;;3.80;99.90;;;;;;5034777;28;20452;-77
2024/01/27 05:00:53;;;;;;;3.92;3.53;;;3.80;99.90;;;;;;5035947;28;20979;-80
2024/01/27 05:03:21;;;;;;;3.27;2.90;;;3.90;99.90;;;;;;5034732;28;20212;-79
2024/01/27 05:05:49;;;;;;;3.30;3.10;;;3.90;99.90;;;;;;5037007;28;20464;-78
2024/01/27 05:08:17;;;;;;;3.42;3.13;;;3.80;99.90;;;;;;5041130;28;20958;-77
2024/01/27 05:10:45;;;;;;;5.45;3.70;;;3.80;99.90;;;;;;5037793;28;20226;-81
2024/01/27 05:13:14;;;;;;;3.30;2.97;;;3.80;99.90;;;;;;5041847;28;20651;-78
2024/01/27 05:15:43;;;;;;;3.20;3.00;;;3.70;99.90;;;;;;5039479;28;20568;-79
2024/01/27 05:18:11;;;;;;;3.77;2.63;;;3.60;99.90;;;;;;5037616;28;20440;-77
2024/01/27 05:20:39;;;;;;;4.73;3.10;;;3.70;99.90;;;;;;5041923;28;20479;-77
2024/01/27 05:23:08;;;;;;;5.38;2.83;;;3.70;99.90;;;;;;5038000;28;20462;-77
2024/01/27 05:25:36;;;;;;;2.83;2.55;;;3.70;99.90;;;;;;5040099;28;20205;-77
2024/01/27 05:28:05;;;;;;;5.70;2.60;;;3.70;99.90;;;;;;5037572;28;20209;-77
2024/01/27 05:30:33;;;;;;;3.77;2.93;;;3.70;99.90;;;;;;5035121;28;21233;-79
2024/01/27 05:33:03;;;;;;;3.95;3.65;;;3.70;99.90;;;;;;5037509;28;20451;-80
2024/01/27 05:35:32;;;;;;;3.00;2.67;;;3.70;99.90;;;;;;5038906;28;20227;-80
2024/01/27 05:38:00;;;;;;;3.17;2.97;;;3.60;99.90;;;;;;5042225;28;20536;-78
2024/01/27 05:40:28;;;;;;;3.25;2.80;;;3.60;99.90;;;;;;5041475;28;20255;-80
2024/01/27 05:42:56;;;;;;;2.95;2.70;;;3.60;99.90;;;;;;5039416;28;20727;-77
2024/01/27 05:45:26;;;;;;;3.08;1.98;;;3.50;99.90;;;;;;5040408;28;20199;-77
2024/01/27 05:47:54;;;;;;;4.85;3.45;;;3.60;99.90;;;;;;5037699;28;20198;-80
2024/01/27 05:50:24;;;;;;;4.25;3.35;;;3.60;99.90;;;;;;5034255;28;20218;-79
2024/01/27 05:52:52;;;;;;;3.80;3.40;;;3.60;99.90;;;;;;5035866;28;20194;-81
2024/01/27 05:55:21;;;;;;;3.72;2.83;;;3.60;99.90;;;;;;5037363;28;20613;-82
2024/01/27 05:57:49;;;;;;;3.28;2.78;;;3.60;99.90;;;;;;5038871;28;20236;-78
2024/01/27 06:00:17;;;;;;;5.23;3.17;;;3.50;99.90;;;;;;5040352;28;20226;-77
2024/01/27 06:02:46;;;;;;;2.72;2.53;;;3.60;99.90;;;;;;5035298;28;20474;-78
2024/01/27 06:05:14;;;;;;;3.40;2.88;;;3.60;99.90;;;;;;5033874;28;20198;-82
2024/01/27 06:07:45;;;;;;;4.45;3.00;;;3.50;99.90;;;;;;5033474;28;20194;-78
2024/01/27 06:10:14;;;;;;;4.55;3.38;;;3.50;99.90;;;;;;5037752;28;20228;-77
2024/01/27 06:12:42;;;;;;;2.87;2.67;;;3.60;99.90;;;;;;5042209;28;20201;-77
2024/01/27 06:15:10;;;;;;;3.50;3.30;;;3.60;99.90;;;;;;5036973;28;20475;-80
2024/01/27 06:17:39;;;;;;;2.95;2.65;;;3.50;99.90;;;;;;5034870;28;20649;-80
2024/01/27 06:20:08;;;;;;;5.65;3.75;;;3.50;99.90;;;;;;5039212;28;20234;-76
2024/01/27 06:22:37;;;;;;;3.25;2.42;;;3.50;99.90;;;;;;5036479;28;21299;-79
2024/01/27 06:25:10;;;;;;;2.80;2.60;;;3.40;99.90;;;;;;5038818;28;20190;-78
2024/01/27 06:27:38;;;;;;;3.10;2.90;;;3.30;99.90;;;;;;5039161;28;20477;-77
2024/01/27 06:30:08;;;;;;;5.28;3.22;;;3.50;99.90;;;;;;5038911;28;20502;-76
2024/01/27 06:32:36;;;;;;;5.72;3.08;;;3.50;99.90;;;;;;5041986;28;20225;-76
2024/01/27 06:35:05;;;;;;;6.97;2.80;;;3.50;99.90;;;;;;5040888;28;20202;-77
2024/01/27 06:37:33;;;;;;;4.57;3.53;;;3.40;99.90;;;;;;5040097;28;20271;-77
2024/01/27 06:40:01;;;;;;;3.30;3.00;;;3.40;99.90;;;;;;5039076;28;20278;-78
2024/01/27 06:42:31;;;;;;;3.38;3.10;;;3.40;99.90;;;;;;5036976;28;20630;-78
2024/01/27 06:44:59;;;;;;;4.28;2.85;;;3.40;99.90;;;;;;5034008;28;20225;-80
2024/01/27 06:47:27;;;;;;;2.75;2.53;;;3.40;99.90;;;;;;5033207;28;20186;-78
2024/01/27 06:49:56;;;;;;;4.30;3.38;;;3.40;99.90;;;;;;5033295;28;20756;-76
2024/01/27 06:52:24;;;;;;;4.33;2.73;;;3.40;99.90;;;;;;5030922;28;20202;-75
2024/01/27 06:54:52;;;;;;;3.35;3.08;;;3.30;99.90;;;;;;5032657;28;20455;-76
2024/01/27 06:57:21;;;;;;;6.15;3.08;;;3.20;99.90;;;;;;5033299;28;20221;-77
2024/01/27 06:59:52;;;;;;;3.33;3.03;;;3.20;99.90;;;;;;5038015;28;20236;-77
2024/01/27 07:02:24;;;;;;;3.47;2.85;;;3.20;99.90;;;;;;5038216;28;20209;-76
2024/01/27 07:04:52;;;;;;;5.47;4.95;;;3.20;99.90;;;;;;5041567;28;20853;-77
2024/01/27 07:07:23;;;;;;;3.58;2.80;;;3.20;99.90;;;;;;5036665;28;20194;-78
2024/01/27 07:09:51;;;;;;;4.00;3.42;;;3.20;99.90;;;;;;5037432;28;20236;-77
2024/01/27 07:12:19;;;;;;;5.93;3.00;;;3.30;99.90;;;;;;5038806;28;20255;-76
2024/01/27 07:14:47;;;;;;;4.07;2.63;;;3.30;99.90;;;;;;5040232;28;20248;-76
2024/01/27 07:17:17;;;;;;;3.08;2.78;;;3.20;99.90;;;;;;5039202;28;20279;-76
2024/01/27 07:19:45;;;;;;;4.18;3.33;;;3.30;99.90;;;;;;5039963;28;20225;-78
2024/01/27 07:22:13;;;;;;;3.63;3.33;;;3.30;99.90;;;;;;5041984;28;20281;-81
2024/01/27 07:24:42;;;;;;;3.78;3.45;;;3.30;99.90;;;;;;5038718;28;21078;-76
2024/01/27 07:27:13;;;;;;;2.60;2.45;;;3.20;99.90;;;;;;5036175;28;20636;-77
2024/01/27 07:29:42;;;;;;;3.35;3.03;;;3.20;99.90;;;;;;5035263;28;20948;-79
2024/01/27 07:32:13;;;;;;;3.70;3.20;;;3.30;99.90;;;;;;5039456;28;20809;-76
2024/01/27 07:34:44;;;;;;;3.40;2.80;;;3.30;99.90;;;;;;5036384;28;20213;-79
2024/01/27 07:37:12;;;;;;;4.50;2.40;;;3.40;99.90;;;;;;5034561;28;20938;-77
2024/01/27 07:39:41;;;;;;;3.70;3.40;;;3.40;99.90;;;;;;5042356;28;20559;-76
2024/01/27 07:42:09;;;;;;;6.00;3.23;;;3.40;99.90;;;;;;5038861;28;20660;-78
2024/01/27 07:44:38;;;;;;;4.40;3.85;;;3.30;99.90;;;;;;5039297;28;20468;-76
2024/01/27 07:47:06;;;;;;;3.85;3.65;;;3.30;99.90;;;;;;5035259;28;20206;-77
2024/01/27 07:49:34;;;;;;;4.95;3.33;;;3.40;99.90;;;;;;5040388;28;20205;-75
2024/01/27 07:52:04;;;;;;;4.10;3.00;;;3.40;99.90;;;;;;5038785;28;20255;-76
2024/01/27 07:54:32;;;;;;;2.97;2.70;;;3.40;99.90;;;;;;5040300;28;20202;-77
2024/01/27 07:57:01;;;;;;;3.28;2.97;;;3.50;99.90;;;;;;5045575;28;20890;-76
2024/01/27 07:59:30;;;;;;;3.97;3.03;;;3.80;99.90;;;;;;5039476;28;20198;-78
2024/01/27 08:01:59;;;;;;;2.37;2.17;;;3.90;99.90;;;;;;5037909;28;20452;-76
2024/01/27 08:04:30;;;;;;;5.50;3.63;;;4.00;99.90;;;;;;5040605;28;20460;-77
2024/01/27 08:06:59;;;;;;;2.87;2.67;;;4.20;99.90;;;;;;5034717;28;20502;-77
2024/01/27 08:09:28;;;;;;;3.10;2.57;;;4.40;99.90;;;;;;5039082;28;20569;-77
2024/01/27 08:11:57;;;;;;;3.20;2.40;;;4.60;99.90;;;;;;5039312;28;20451;-76
2024/01/27 08:14:25;;;;;;;3.53;2.63;;;4.70;99.90;;;;;;5040442;28;20462;-78
2024/01/27 08:16:53;;;;;;;2.70;2.50;;;4.90;99.90;;;;;;5039992;28;20939;-76
2024/01/27 08:19:25;;;;;;;5.73;2.87;;;5.10;99.90;;;;;;5055094;28;20869;-79
2024/01/27 08:21:53;;;;;;;4.43;3.20;;;5.30;99.90;;;;;;5042726;28;20507;-78
2024/01/27 08:24:23;;;;;;;7.30;5.07;;;5.30;99.90;;;;;;5037629;28;20872;-77
2024/01/27 08:26:53;;;;;;;5.93;5.20;;;5.50;99.90;;;;;;5036834;28;20455;-78
2024/01/27 08:29:21;;;;;;;8.83;5.43;;;5.70;99.90;;;;;;5039084;28;20963;-77
2024/01/27 08:31:50;;;;;;;6.83;6.23;;;5.90;99.90;;;;;;5038925;28;20543;-76
2024/01/27 08:34:18;;;;;;;6.53;5.93;;;6.00;99.90;;;;;;5038003;28;20555;-77
2024/01/27 08:36:46;;;;;;;7.83;7.13;;;6.20;99.90;;;;;;5039038;28;20459;-77
2024/01/27 08:39:14;;;;;;;11.37;6.30;;;6.30;99.90;;;;;;5037255;28;20487;-80
2024/01/27 08:41:43;;;;;;;5.60;5.20;;;6.50;99.90;;;;;;5036203;28;20490;-77
2024/01/27 08:44:13;;;;;;;8.00;5.60;;;6.60;99.90;;;;;;5038134;28;20459;-79
2024/01/27 08:46:41;;;;;;;7.50;6.00;;;6.70;99.90;;;;;;5038310;28;20501;-78
2024/01/27 08:49:10;;;;;;;6.37;5.97;;;6.80;99.90;;;;;;5037598;28;20463;-78
2024/01/27 08:51:38;;;;;;;7.30;6.10;;;7.00;99.90;;;;;;5038115;28;20476;-80
2024/01/27 08:54:06;;;;;;;10.30;6.00;;;7.10;99.90;;;;;;5034497;28;20496;-78
2024/01/27 08:56:34;;;;;;;7.47;6.70;;;7.30;99.90;;;;;;5038876;28;20460;-76
2024/01/27 08:59:02;;;;;;;7.60;6.97;;;7.50;99.90;;;;;;5036955;28;20822;-77
2024/01/27 09:01:32;;;;;;;7.10;6.50;;;7.70;99.90;;;;;;5037890;28;21021;-77
2024/01/27 09:04:00;;;;;;;6.03;5.43;;;7.80;99.90;;;;;;5041431;28;20477;-79
2024/01/27 09:06:28;;;;;;;5.13;4.83;;;8.00;99.90;;;;;;5038722;28;20452;-77
2024/01/27 09:08:59;;;;;;;4.60;4.20;;;8.10;99.90;;;;;;5033926;28;20476;-76
2024/01/27 09:11:30;;;;;;;6.00;5.20;;;8.10;99.90;;;;;;5037266;28;20571;-78
2024/01/27 09:13:58;;;;;;;5.93;5.20;;;8.10;99.90;;;;;;5043092;28;20452;-77
2024/01/27 09:16:26;;;;;;;6.03;4.80;;;8.10;99.90;;;;;;5035913;28;20448;-78
2024/01/27 09:18:55;;;;;;;5.87;4.37;;;7.90;99.90;;;;;;5038752;28;20477;-79
2024/01/27 09:21:30;;;;;;;4.17;3.90;;;7.90;99.90;;;;;;5037498;28;21088;-77
2024/01/27 09:24:01;;;;;;;4.33;3.90;;;8.00;99.90;;;;;;5038215;28;20457;-78
2024/01/27 09:26:29;;;;;;;4.93;3.77;;;8.10;99.90;;;;;;5036515;28;21005;-81
2024/01/27 09:28:58;;;;;;;5.60;4.23;;;8.10;99.90;;;;;;5041064;28;20548;-78
2024/01/27 09:31:26;;;;;;;5.67;5.10;;;8.10;99.90;;;;;;5040252;28;21027;-79
2024/01/27 09:33:56;;;;;;;4.27;3.97;;;8.00;99.90;;;;;;5040645;28;20460;-79
2024/01/27 09:36:24;;;;;;;7.97;4.60;;;7.90;99.90;;;;;;5038498;28;20848;-79
2024/01/27 09:38:54;;;;;;;6.50;4.17;;;7.90;99.90;;;;;;5039344;28;20491;-79
2024/01/27 09:41:22;;;;;;;4.20;3.80;;;8.10;99.90;;;;;;5039287;28;20575;-76
2024/01/27 09:43:51;;;;;;;5.00;3.70;;;8.20;99.90;;;;;;5039567;28;20456;-79
2024/01/27 09:46:20;;;;;;;4.17;3.70;;;8.40;99.90;;;;;;5036493;28;21007;-78
2024/01/27 09:48:48;;;;;;;5.30;4.80;;;8.90;99.90;;;;;;5038074;28;20460;-80
2024/01/27 09:51:18;;;;;;;4.43;4.10;;;9.60;99.90;;;;;;5035860;28;20541;-78
2024/01/27 09:53:46;;;;;;;4.53;3.57;;;10.30;99.90;;;;;;5037381;28;20571;-77
2024/01/27 09:56:17;;;;;;;3.40;3.00;;;11.00;99.90;;;;;;5032660;28;20452;-78
2024/01/27 09:58:47;;;;;;;3.60;3.30;;;11.70;99.90;;;;;;5037372;28;21179;-78
2024/01/27 10:01:18;;;;;;;4.20;3.03;;;12.20;99.90;;;;;;5033385;28;21306;-77
2024/01/27 10:03:48;;;;;;;10.03;3.70;;;12.80;99.90;;;;;;5037092;28;20510;-78
2024/01/27 10:06:17;;;;;;;3.87;2.90;;;13.20;99.90;;;;;;5035904;28;20449;-78
2024/01/27 10:08:54;;;;;;;3.93;2.80;;;13.60;99.90;;;;;;5031478;28;20448;-78
2024/01/27 10:11:22;;;;;;;3.73;3.23;;;13.70;99.90;;;;;;5034472;28;20512;-80
2024/01/27 10:13:55;;;;;;;6.90;3.13;;;14.10;99.90;;;;;;5038264;28;20448;-78
2024/01/27 10:16:27;;;;;;;3.20;2.90;;;14.80;99.90;;;;;;5036172;28;20530;-78
2024/01/27 10:19:02;;;;;;;6.07;3.57;;;15.30;99.90;;;;;;5036585;28;20476;-78
2024/01/27 10:21:32;;;;;;;2.70;2.50;;;16.00;99.90;;;;;;5035591;28;20558;-77
2024/01/27 10:24:05;;;;;;;2.77;2.57;;;16.70;99.90;;;;;;5036378;28;21444;-78
2024/01/27 10:26:34;;;;;;;4.30;3.17;;;17.30;99.90;;;;;;5034312;28;20461;-79
2024/01/27 10:29:03;;;;;;;3.90;2.90;;;17.60;99.90;;;;;;5036573;28;20536;-77
2024/01/27 10:31:34;;;;;;;7.63;3.00;;;18.30;99.90;;;;;;5033356;28;20473;-79
2024/01/27 10:34:04;;;;;;;2.90;2.67;;;18.80;99.90;;;;;;5034993;28;20481;-79
2024/01/27 10:36:44;;;;;;;6.40;3.37;;;19.40;99.90;;;;;;5036897;28;20453;-79
2024/01/27 10:39:18;;;;;;;2.73;2.50;;;20.10;99.90;;;;;;5031367;28;20473;-80
2024/01/27 10:41:47;;;;;;;4.93;3.07;;;21.00;99.90;;;;;;5036730;28;20847;-80
2024/01/27 10:44:16;;;;;;;6.20;3.07;;;21.70;99.90;;;;;;5034603;28;20534;-80
2024/01/27 10:46:46;;;;;;;3.67;2.43;;;21.70;99.90;;;;;;5039848;28;20808;-81
2024/01/27 10:49:16;;;;;;;4.43;2.60;;;22.00;99.90;;;;;;5035229;28;20511;-82
2024/01/27 10:51:51;;;;;;;3.27;2.97;;;21.10;99.90;;;;;;5038882;28;20463;-77
2024/01/27 10:54:25;;;;;;;5.33;2.67;;;21.40;99.90;;;;;;5035758;28;21514;-79
2024/01/27 10:56:57;;;;;;;2.90;2.70;;;22.20;99.90;;;;;;5034396;28;20462;-78
2024/01/27 10:59:27;;;;;;;2.63;2.40;;;22.90;99.90;;;;;;5030625;28;20474;-80
2024/01/27 11:01:57;;;;;;;3.80;2.53;;;23.20;99.90;;;;;;5028892;28;20465;-79
2024/01/27 11:04:26;;;;;;;3.10;2.80;;;22.70;99.90;;;;;;5036895;28;20543;-78
2024/01/27 11:06:57;;;;;;;2.87;2.67;;;22.90;99.90;;;;;;5037490;28;20593;-78
2024/01/27 11:09:26;;;;;;;4.00;3.57;;;22.40;99.90;;;;;;5033981;28;20460;-79
2024/01/27 11:11:55;;;;;;;3.33;3.13;;;21.00;99.90;;;;;;5035028;28;20551;-80
2024/01/27 11:14:23;;;;;;;4.60;3.67;;;18.50;99.90;;;;;;5035483;28;20449;-80
2024/01/27 11:16:56;;;;;;;4.07;3.67;;;17.40;99.90;;;;;;5031612;28;20448;-78
2024/01/27 11:19:25;;;;;;;5.20;3.47;;;16.30;99.30;;;;;;5033379;28;20479;-81
2024/01/27 11:22:03;;;;;;;4.30;3.90;;;16.00;98.60;;;;;;5030595;28;21118;-78
2024/01/27 11:24:31;;;;;;;6.60;3.20;;;15.20;93.50;;;;;;5031692;28;20456;-77
2024/01/27 11:27:04;;;;;;;4.77;3.20;;;15.20;93.90;;;;;;5029600;28;20961;-78
2024/01/27 11:29:34;;;;;;;4.43;3.40;;;15.50;98.00;;;;;;5027901;28;21334;-78
2024/01/27 11:32:03;;;;;;;2.63;2.30;;;16.40;99.90;;;;;;5028561;28;21203;-79
2024/01/27 11:34:45;;;;;;;3.13;2.60;;;17.80;99.90;;;;;;5034899;28;20454;-78
2024/01/27 11:37:17;;;;;;;3.77;3.20;;;19.40;99.90;;;;;;5030388;28;20449;-80
2024/01/27 11:39:45;;;;;;;2.60;2.40;;;19.10;99.90;;;;;;5036843;28;20517;-79
2024/01/27 11:42:14;;;;;;;5.70;2.63;;;17.90;99.90;;;;;;5030074;28;20444;-80
2024/01/27 11:44:43;;;;;;;3.63;2.60;;;16.60;99.90;;;;;;5030436;28;20473;-80
2024/01/27 11:47:16;;;;;;;6.70;2.73;;;15.50;96.40;;;;;;5036234;28;21423;-79
2024/01/27 11:49:45;;;;;;;2.87;2.57;;;14.80;91.70;;;;;;5020043;28;20479;-77
2024/01/27 11:52:15;;;;;;;4.73;3.23;;;14.20;84.20;;;;;;5034781;28;20452;-77
2024/01/27 11:54:43;;;;;;;2.90;2.60;;;13.90;83.00;;;;;;5040565;28;20458;-77
2024/01/27 11:57:11;;;;;;;6.40;3.35;;;13.60;81.30;;;;;;5037601;28;20445;-80
2024/01/27 11:59:39;;;;;;;4.97;3.17;;;13.60;69.10;;;;;;5041995;28;20312;-81
2024/01/27 12:02:08;;;;;;;6.70;2.80;;;13.60;72.00;;;;;;5040038;28;20451;-78
2024/01/27 12:04:36;;;;;;;6.17;2.97;;;13.40;65.90;;;;;;5039096;28;20448;-78
2024/01/27 12:07:04;;;;;;;4.40;2.90;;;13.00;58.90;;;;;;5033005;28;20451;-77
2024/01/27 12:09:36;;;;;;;4.77;2.50;;;13.00;62.00;;;;;;5035747;28;21285;-80
2024/01/27 12:12:05;;;;;;;4.47;3.23;;;12.90;60.90;;;;;;5041302;28;20470;-78
2024/01/27 12:14:40;;;;;;;3.03;2.60;;;12.60;56.10;;;;;;5036204;28;20466;-80
2024/01/27 12:17:10;;;;;;;4.20;2.70;;;12.60;57.70;;;;;;5040842;28;20462;-79
2024/01/27 12:19:39;;;;;;;2.90;2.70;;;12.90;64.00;;;;;;5034125;28;20480;-79
2024/01/27 12:22:22;;;;;;;3.90;3.00;;;12.60;56.90;;;;;;5035181;28;21271;-78
2024/01/27 12:24:52;;;;;;;5.87;3.10;;;12.10;50.40;;;;;;5031784;28;20470;-79
2024/01/27 12:27:20;;;;;;;6.80;3.10;;;12.30;55.50;;;;;;5034276;28;20570;-79
2024/01/27 12:29:49;;;;;;;4.30;2.67;;;12.20;54.80;;;;;;5037786;28;20491;-80
2024/01/27 12:32:19;;;;;;;5.47;3.10;;;12.20;55.50;;;;;;5039182;28;20448;-77
2024/01/27 12:34:48;;;;;;;3.70;2.67;;;12.30;56.60;;;;;;5039550;28;20448;-77
2024/01/27 12:37:16;;;;;;;2.47;2.27;;;12.30;53.80;;;;;;5028414;28;21007;-77
2024/01/27 12:39:45;;;;;;;3.80;2.47;;;12.30;55.30;;;;;;5039046;28;20488;-77
2024/01/27 12:42:15;;;;;;;5.03;2.37;;;11.70;49.20;;;;;;5028356;28;20464;-76
2024/01/27 12:44:43;;;;;;;2.43;2.20;;;11.80;49.50;;;;;;5038241;28;20456;-78
2024/01/27 12:47:12;;;;;;;2.37;2.07;;;11.30;41.20;;;;;;5035833;28;20456;-81
2024/01/27 12:49:41;;;;;;;4.20;2.27;;;11.50;42.20;;;;;;5033954;28;20452;-79
2024/01/27 12:52:10;;;;;;;2.63;1.90;;;11.70;45.60;;;;;;5033589;28;20460;-77
2024/01/27 12:54:38;;;;;;;4.87;2.47;;;11.90;62.90;;;;;;5034587;28;20460;-77
2024/01/27 12:57:07;;;;;;;5.17;1.83;;;11.70;44.30;;;;;;5030648;28;21015;-76
2024/01/27 12:59:37;;;;;;;1.93;1.70;;;11.20;35.60;;;;;;5035253;28;20467;-78
2024/01/27 13:02:05;;;;;;;2.63;2.43;;;11.40;39.60;;;;;;5035953;28;20456;-79
2024/01/27 13:04:34;;;;;;;3.43;1.90;;;11.40;39.90;;;;;;5035441;28;20456;-79